Date,TemperatureHighF,TemperatureAvgF,TemperatureLowF,DewpointHighF,DewpointAvgF,DewpointLowF,HumidityHigh,HumidityAvg,HumidityLow,PressureMaxIn,PressureMinIn,WindSpeedMaxMPH,WindSpeedAvgMPH,GustSpeedMaxMPH,PrecipitationSumIn
2013-1-1,37.7,34.2,31.0,32.0,27.0,16.8,92,76,45,30.03,29.88,23,5,25,0.02
2013-1-2,34.7,29.2,22.7,26.3,16.8,10.0,79,60,42,30.12,29.91,19,6,21,0.00
2013-1-3,37.0,25.5,16.8,18.1,12.4,7.9,72,58,44,30.15,30.06,12,3,13,0.00
2013-1-4,31.6,27.0,24.2,17.0,15.0,12.6,66,60,54,30.21,30.12,22,9,24,0.00
2013-1-5,41.4,31.2,23.1,22.4,17.0,12.1,67,56,41,30.29,30.09,27,4,29,0.00
2013-1-6,38.5,35.8,33.1,26.7,22.4,19.5,72,58,51,30.12,30.00,25,5,27,0.00
2013-1-7,41.4,30.6,24.0,25.8,19.2,16.4,76,63,45,30.35,30.12,25,5,27,0.00
2013-1-8,49.2,29.9,17.5,27.5,19.4,12.4,85,67,39,30.35,30.27,9,2,10,0.00
2013-1-9,48.7,35.9,23.6,45.6,29.2,17.9,97,77,54,30.41,30.29,18,3,19,0.00
2013-1-10,46.8,37.7,29.5,35.0,29.7,25.1,92,74,53,30.50,30.35,6,1,7,0.00
2013-1-11,40.9,38.1,34.7,40.3,36.0,28.8,98,92,78,30.35,30.09,4,0,5,0.16
2013-1-12,68.8,49.0,35.8,57.4,45.3,35.3,98,89,57,30.15,30.06,11,1,12,0.01
2013-1-13,61.8,51.4,39.9,57.7,48.5,39.4,98,90,71,30.09,29.97,7,0,8,0.05
2013-1-14,56.8,49.1,39.8,56.2,44.6,38.0,98,85,71,30.24,30.00,23,3,25,0.66
2013-1-15,41.8,39.7,37.3,41.3,39.2,36.6,98,98,97,30.21,30.00,8,0,10,0.96
2013-1-16,43.8,39.1,36.4,43.3,37.4,35.1,98,94,80,30.00,29.85,14,2,16,0.29
2013-1-17,38.8,35.4,30.7,37.1,25.1,17.4,95,68,48,30.12,29.97,25,4,27,0.00
2013-1-18,41.8,30.7,22.9,19.6,12.6,6.3,63,48,29,30.35,30.12,31,7,34,0.01
2013-1-19,50.5,34.4,19.9,25.6,18.7,14.6,89,56,35,30.32,30.00,17,4,18,0.00
2013-1-20,46.8,38.4,29.2,25.8,17.2,6.6,55,42,34,30.03,29.94,29,8,32,0.00
2013-1-21,41.0,29.0,18.8,14.5,8.1,1.9,50,41,31,30.03,29.79,34,8,37,0.00
2013-1-22,19.2,12.2,7.3,2.2,-4.8,-9.4,52,46,38,30.12,29.91,25,9,27,0.00
2013-1-23,25.1,15.2,7.7,12.6,-1.6,-10.6,75,48,33,30.15,29.91,23,6,25,0.02
2013-1-24,21.2,14.7,4.9,14.6,0.7,-11.8,78,54,44,30.35,29.88,33,7,36,0.03
2013-1-25,28.1,14.1,4.2,24.0,3.0,-12.8,93,62,45,30.32,29.91,20,2,22,0.10
2013-1-26,28.2,24.7,22.1,20.2,15.0,12.4,73,66,58,30.29,29.97,20,8,22,0.00
2013-1-27,35.5,25.2,10.6,19.0,13.1,5.0,78,61,46,30.41,30.29,6,1,7,0.00
2013-1-28,47.2,39.2,30.7,46.6,35.8,17.8,98,88,57,30.29,30.09,7,0,8,0.04
2013-1-29,67.4,52.3,45.5,57.9,48.0,43.3,98,87,54,30.15,29.97,11,2,12,0.01
2013-1-30,63.5,52.6,42.5,58.0,50.8,41.4,98,94,76,29.97,29.35,20,3,22,2.23
2013-1-31,48.5,29.2,24.0,43.9,18.2,10.4,86,63,51,29.85,29.35,36,11,40,0.01
2013-2-1,25.8,13.9,3.6,23.6,2.3,-11.9,93,61,46,30.21,29.70,37,8,40,0.00
2013-2-2,25.5,14.3,2.3,21.7,3.9,-13.6,90,64,48,30.18,29.88,14,2,15,0.18
2013-2-3,30.9,25.5,20.6,22.4,15.4,6.6,89,66,53,29.94,29.76,26,8,28,0.03
2013-2-4,33.3,25.6,16.2,31.8,13.3,4.4,95,60,48,29.97,29.85,25,5,27,0.03
2013-2-5,40.7,37.0,33.1,32.5,30.2,26.9,95,77,60,29.88,29.79,18,5,20,0.00
2013-2-6,43.3,35.1,26.2,31.2,24.3,19.1,78,65,47,30.21,29.88,23,6,25,0.00
2013-2-7,40.9,32.9,25.3,29.8,26.1,20.3,87,77,57,30.24,30.03,9,1,10,0.00
2013-2-8,42.7,33.4,27.7,39.9,28.6,17.8,98,83,68,30.06,29.79,50,9,55,0.01
2013-2-9,43.8,29.4,20.6,19.7,12.7,7.7,67,50,35,30.27,30.06,36,6,40,0.00
2013-2-10,47.2,31.3,19.4,28.0,16.9,11.3,78,57,37,30.32,30.09,12,2,13,0.02
2013-2-11,58.7,43.1,33.8,50.5,30.5,16.1,98,68,28,30.09,29.82,26,4,28,0.04
2013-2-12,53.7,40.9,32.9,24.4,19.3,15.5,57,42,29,30.03,29.85,24,7,26,0.00
2013-2-13,38.1,33.5,31.2,32.6,24.6,15.8,94,71,45,29.91,29.59,23,3,25,0.17
2013-2-14,44.0,35.2,28.1,26.4,22.5,19.8,81,60,45,29.97,29.79,14,4,16,0.00
2013-2-15,47.5,29.7,25.1,33.3,24.7,21.0,93,82,54,30.00,29.94,11,2,12,0.01
2013-2-16,31.0,26.5,20.1,23.5,14.2,7.4,74,60,45,29.94,29.82,27,8,30,0.00
2013-2-17,22.9,15.9,9.7,12.7,1.7,-3.0,77,54,44,30.09,29.82,28,9,31,0.00
2013-2-18,47.2,27.7,9.7,23.0,10.4,-5.2,66,48,38,30.24,30.03,18,3,20,0.00
2013-2-19,43.8,34.5,29.0,37.2,24.0,10.3,96,68,42,30.03,29.73,28,6,31,0.15
2013-2-20,31.2,24.9,19.9,13.6,8.9,5.8,59,50,43,30.06,29.88,29,10,32,0.00
2013-2-21,44.8,27.6,13.8,19.4,10.5,2.8,63,49,34,30.15,30.03,26,5,28,0.00
2013-2-22,34.7,32.1,29.2,29.5,23.4,13.9,87,71,46,30.18,30.03,7,1,8,0.04
2013-2-23,59.2,41.5,32.5,40.8,33.0,28.6,98,76,37,30.03,29.79,12,2,13,0.00
2013-2-24,47.0,36.9,27.3,31.4,22.2,14.9,79,56,37,30.03,29.79,30,7,32,0.00
2013-2-25,46.2,31.4,20.6,22.8,15.6,12.3,73,53,38,30.09,30.00,7,2,10,0.00
2013-2-26,38.3,33.5,27.5,37.3,26.4,13.1,98,77,51,30.06,29.59,9,1,10,0.37
2013-2-27,40.7,37.7,33.6,37.4,30.1,25.5,98,75,56,29.70,29.56,19,5,21,0.05
2013-2-28,33.8,31.0,29.5,28.4,22.8,18.7,81,72,58,29.76,29.65,19,5,21,0.00
2013-3-1,32.7,30.5,27.1,25.6,20.0,15.3,80,65,55,29.85,29.73,21,8,23,0.00
2013-3-2,27.9,25.2,23.2,16.4,13.5,11.0,68,61,53,29.85,29.79,22,9,24,0.00
2013-3-3,23.8,22.0,20.6,12.7,9.8,6.6,64,59,53,29.91,29.82,24,8,26,0.00
2013-3-4,40.5,27.4,19.7,17.9,10.6,6.0,58,49,39,30.00,29.91,28,8,30,0.00
2013-3-5,42.5,35.3,26.2,33.5,25.8,12.7,97,69,52,30.00,29.59,7,1,8,0.38
2013-3-6,35.5,31.3,26.4,32.6,24.7,18.2,98,77,62,30.03,29.59,19,5,21,0.41
2013-3-7,35.8,32.2,30.1,26.9,22.9,19.0,85,69,53,30.15,30.03,28,10,30,0.00
2013-3-8,39.0,32.6,26.2,24.6,19.8,14.9,78,59,49,30.27,30.12,28,7,31,0.00
2013-3-9,56.4,35.6,19.5,29.3,21.6,15.2,85,60,32,30.29,30.18,7,2,8,0.00
2013-3-10,62.5,41.8,27.0,34.4,26.7,20.5,83,58,33,30.24,30.12,9,2,10,0.00
2013-3-11,53.8,45.3,34.7,49.3,34.7,26.3,91,67,50,30.15,29.82,16,2,18,0.02
2013-3-12,51.8,41.6,33.1,50.0,33.2,21.7,98,73,51,29.97,29.76,26,8,28,0.16
2013-3-13,38.8,31.8,23.4,27.8,20.0,11.6,81,62,45,30.06,29.91,30,8,32,0.00
2013-3-14,40.5,28.7,20.6,18.4,12.1,6.8,65,50,40,30.15,30.06,30,10,33,0.00
2013-3-15,56.4,41.5,28.8,31.5,20.8,8.6,53,44,37,30.09,29.82,19,6,21,0.00
2013-3-16,67.2,49.5,37.9,55.2,40.9,29.0,97,74,43,29.85,29.62,32,5,35,0.36
2013-3-17,48.8,42.1,37.0,38.6,35.6,33.3,95,78,66,30.06,29.85,14,2,16,0.06
2013-3-18,37.0,33.1,31.2,35.4,30.8,28.2,97,91,86,30.06,29.88,4,0,5,0.22
2013-3-19,51.4,42.5,34.0,28.3,17.1,6.0,69,37,24,29.97,29.79,37,14,40,0.00
2013-3-20,45.5,35.2,27.7,25.1,11.7,4.7,76,39,29,29.97,29.73,28,9,30,0.00
2013-3-21,29.5,21.8,16.6,19.8,7.6,1.2,68,54,43,29.88,29.73,29,10,32,0.00
2013-3-22,42.0,28.0,17.7,17.7,9.6,4.0,56,46,35,29.94,29.85,30,7,32,0.00
2013-3-23,50.9,33.8,19.9,22.3,14.1,7.1,70,46,31,29.97,29.88,18,3,19,0.00
2013-3-24,35.8,31.2,27.7,27.8,20.6,11.0,88,66,43,29.91,29.50,6,1,7,0.33
2013-3-25,37.3,30.8,28.6,27.4,23.2,17.3,92,74,50,29.70,29.47,27,5,29,0.21
2013-3-26,37.3,32.2,28.6,27.6,22.3,16.9,87,67,46,30.03,29.70,25,8,27,0.00
2013-3-27,37.2,31.2,28.4,24.3,21.0,16.9,74,66,52,30.12,30.03,27,7,29,0.00
2013-3-28,38.6,34.0,29.4,23.7,19.5,16.3,75,55,47,30.21,30.09,25,8,27,0.00
2013-3-29,52.7,40.5,32.3,26.4,22.0,19.5,66,48,34,30.21,30.12,21,5,22,0.00
2013-3-30,60.0,42.5,28.4,30.3,24.3,20.6,81,52,28,30.18,30.03,14,3,15,0.00
2013-3-31,51.2,42.8,36.6,50.3,36.8,22.5,98,80,50,30.03,29.76,14,3,16,0.30
2013-4-1,47.0,41.4,32.7,44.1,32.7,16.8,96,72,52,29.97,29.79,22,6,24,0.06
2013-4-2,44.6,34.6,27.0,20.0,13.7,9.4,53,42,31,30.09,29.97,22,8,24,0.00
2013-4-3,48.5,34.6,22.9,18.7,12.1,6.3,65,40,28,30.27,30.09,26,6,28,0.00
2013-4-4,45.9,33.2,24.5,29.2,16.9,6.3,85,53,32,30.27,29.97,11,2,12,0.27
2013-4-5,59.4,43.6,33.1,39.0,28.9,21.5,98,62,31,30.03,29.88,31,5,34,0.10
2013-4-6,67.2,46.8,27.1,28.9,23.7,19.8,79,44,23,30.18,30.03,14,3,15,0.00
2013-4-7,72.0,54.1,36.8,40.2,29.8,19.8,59,40,28,30.15,30.00,21,4,22,0.00
2013-4-8,74.4,53.5,41.4,44.7,37.3,32.9,78,56,32,30.12,30.03,18,2,19,0.00
2013-4-9,80.9,73.9,60.0,50.5,45.4,41.7,52,37,32,30.12,30.03,19,5,20,0.00
2013-4-10,86.8,70.5,52.5,53.8,46.1,40.0,68,45,24,30.09,29.91,20,5,22,0.00
2013-4-11,82.2,67.8,51.4,52.0,45.5,39.8,77,47,23,29.94,29.73,15,3,16,0.00
2013-4-12,70.9,61.3,46.4,60.2,47.5,29.5,97,65,29,29.88,29.65,23,6,25,0.80
2013-4-13,65.5,53.0,43.3,35.0,29.6,22.1,60,42,26,30.00,29.85,28,8,31,0.00
2013-4-14,72.6,58.1,38.3,39.6,31.0,23.2,69,38,24,30.09,30.00,19,3,21,0.00
2013-4-15,63.7,54.2,50.5,51.7,47.7,33.9,94,80,33,30.21,30.03,12,1,13,0.48
2013-4-16,80.5,64.4,54.2,57.0,53.0,49.8,96,70,37,30.27,30.12,25,3,27,0.09
2013-4-17,77.0,65.4,57.4,63.0,55.8,49.1,98,75,43,30.24,30.12,9,2,10,0.09
2013-4-18,76.6,66.2,57.5,61.5,54.2,48.1,92,67,47,30.15,29.97,18,3,20,0.00
2013-4-19,68.3,59.4,43.5,61.2,51.2,31.0,98,75,56,29.97,29.67,30,6,33,0.49
2013-4-20,55.9,43.6,34.9,33.6,24.3,19.2,70,47,33,30.27,29.88,27,9,30,0.00
2013-4-21,63.1,45.3,30.7,33.0,24.8,19.2,77,47,27,30.41,30.27,12,3,13,0.00
2013-4-22,65.5,48.6,32.7,31.0,24.4,18.3,74,41,21,30.41,30.24,12,2,13,0.00
2013-4-23,73.1,53.1,34.0,40.6,31.4,21.9,78,46,26,30.27,30.03,14,3,15,0.00
2013-4-24,75.3,57.2,43.1,52.0,42.8,34.5,90,61,34,30.12,29.88,34,6,37,0.02
2013-4-25,63.5,47.2,34.6,34.9,27.0,21.1,73,48,25,30.29,30.12,24,6,26,0.00
2013-4-26,69.0,50.7,32.0,34.9,27.6,21.1,78,44,26,30.38,30.27,14,3,16,0.00
2013-4-27,70.9,55.3,41.6,40.1,34.0,24.4,69,46,28,30.32,30.21,16,3,18,0.00
2013-4-28,56.2,52.4,49.9,49.8,46.1,38.4,98,80,52,30.21,30.06,14,2,15,0.37
2013-4-29,69.4,56.3,49.2,55.2,50.5,47.9,98,83,50,30.06,29.97,10,2,10,0.01
2013-4-30,77.6,66.6,55.0,55.9,49.9,47.2,85,56,39,30.21,30.03,10,3,10,0.00
2013-5-1,75.0,62.7,55.0,52.1,44.3,32.8,86,54,32,30.32,30.21,12,2,13,0.00
2013-5-2,78.3,63.5,53.8,45.9,39.2,31.9,52,41,31,30.32,30.21,12,3,14,0.00
2013-5-3,70.9,56.9,41.8,43.7,37.8,34.5,86,51,30,30.27,30.18,12,2,13,0.00
2013-5-4,67.9,55.1,41.6,39.7,35.0,28.6,72,48,26,30.21,30.06,14,3,15,0.00
2013-5-5,69.8,55.8,43.8,42.3,34.0,24.9,67,46,23,30.12,30.00,14,3,15,0.00
2013-5-6,62.5,54.5,49.9,53.8,49.2,42.1,98,83,59,30.06,29.94,14,2,15,1.29
2013-5-7,60.5,53.6,49.9,58.2,52.4,46.1,98,96,71,29.97,29.91,14,1,15,0.81
2013-5-8,64.2,53.5,49.6,53.1,49.7,44.5,98,88,52,30.03,29.91,9,1,10,0.70
2013-5-9,75.0,59.7,47.5,58.1,48.5,42.7,98,71,38,30.09,29.97,24,4,26,0.01
2013-5-10,78.9,61.3,49.2,61.5,53.1,46.5,98,78,37,30.09,29.94,19,3,20,0.24
2013-5-11,71.8,62.1,56.2,60.7,54.7,46.0,98,79,45,29.94,29.82,22,4,24,0.17
2013-5-12,56.2,49.1,40.1,46.4,31.9,25.0,80,53,37,30.06,29.85,24,8,26,0.00
2013-5-13,55.3,42.8,34.9,33.9,28.4,23.5,78,58,37,30.15,30.00,26,5,28,0.00
2013-5-14,67.7,49.0,30.5,42.0,32.3,28.0,98,60,26,30.18,30.00,16,2,17,0.01
2013-5-15,86.8,67.9,47.5,55.3,45.8,34.5,80,49,26,30.03,29.91,24,6,26,0.00
2013-5-16,78.1,67.9,57.5,61.7,51.3,42.1,96,58,36,30.06,29.94,33,4,36,0.13
2013-5-17,75.0,62.8,55.3,63.3,58.2,53.6,98,86,54,30.15,30.06,9,1,10,0.07
2013-5-18,74.1,65.1,59.6,64.8,60.5,57.6,98,86,61,30.18,30.09,12,1,13,0.00
2013-5-19,66.8,64.1,61.8,64.8,62.4,59.8,98,94,85,30.15,30.09,9,1,10,0.04
2013-5-20,78.3,67.8,60.3,65.7,62.7,59.8,98,85,62,30.12,30.06,11,2,12,0.01
2013-5-21,86.5,71.7,61.6,67.9,61.3,57.0,98,74,39,30.09,29.94,11,2,12,0.01
2013-5-22,84.4,67.9,57.7,64.6,60.5,51.5,98,80,36,30.03,29.94,16,2,17,0.11
2013-5-23,80.2,66.8,61.8,64.2,58.0,49.4,98,77,37,29.97,29.85,28,3,31,0.03
2013-5-24,61.8,51.0,44.6,52.0,37.9,29.0,81,62,43,30.21,29.88,31,8,34,0.00
2013-5-25,62.0,48.9,35.5,33.1,29.3,23.4,76,49,29,30.24,30.18,32,6,35,0.00
2013-5-26,70.2,53.7,38.1,40.1,31.8,26.4,90,49,23,30.24,30.18,20,4,22,0.00
2013-5-27,71.4,54.6,38.5,49.0,40.0,29.1,85,59,42,30.29,30.15,9,2,10,0.00
2013-5-28,80.9,66.6,50.7,58.5,52.0,46.7,97,63,34,30.21,30.12,14,2,15,0.00
2013-5-29,85.7,68.4,56.6,65.3,56.0,51.6,98,69,33,30.24,30.15,16,3,17,0.00
2013-5-30,88.9,81.1,68.7,61.5,54.6,49.1,67,42,30,30.27,30.18,3,0,4,0.00
2013-5-31,87.8,72.1,57.0,62.9,56.4,48.8,95,62,33,30.24,30.09,12,0,13,0.00
2013-6-1,88.9,73.3,61.6,63.4,58.4,53.7,95,63,32,30.15,30.00,14,3,16,0.00
2013-6-2,75.9,69.5,62.7,65.1,61.2,56.8,98,75,58,30.03,29.91,16,3,17,0.41
2013-6-3,73.5,66.5,60.1,65.4,58.3,52.0,98,77,50,30.06,29.91,16,3,18,0.01
2013-6-4,80.2,64.8,52.3,60.8,51.8,46.6,98,68,34,30.15,30.03,11,2,12,0.00
2013-6-5,77.0,65.9,57.0,60.2,54.9,46.5,82,68,54,30.18,30.03,11,2,12,0.00
2013-6-6,67.6,64.9,62.2,66.8,62.0,56.1,98,91,73,30.09,29.88,7,0,8,0.58
2013-6-7,70.3,65.7,61.8,69.4,63.3,54.9,98,92,75,29.88,29.73,17,2,18,0.78
2013-6-8,80.3,66.4,57.5,59.6,55.2,49.5,98,71,39,30.15,29.88,14,2,15,0.00
2013-6-9,85.5,69.5,57.4,64.3,57.2,49.2,98,70,30,30.21,30.09,12,2,13,0.19
2013-6-10,73.1,67.7,62.9,70.8,63.6,56.7,98,88,60,30.12,29.91,21,2,23,0.62
2013-6-11,75.9,67.2,61.2,63.3,60.1,55.7,98,80,54,30.03,29.91,17,4,18,0.15
2013-6-12,86.3,74.1,64.2,69.4,64.6,60.2,93,74,48,30.03,29.94,18,4,20,0.00
2013-6-13,73.5,67.4,62.2,70.1,62.6,50.0,98,85,63,29.94,29.70,31,5,34,0.87
2013-6-14,73.7,64.2,58.3,54.1,51.1,47.6,83,64,44,30.09,29.85,20,6,22,0.01
2013-6-15,80.0,64.6,52.2,60.8,51.9,47.9,98,68,34,30.18,30.09,14,2,16,0.00
2013-6-16,79.8,66.7,56.1,66.4,59.6,52.7,98,79,53,30.12,30.03,14,3,16,0.08
2013-6-17,85.5,72.2,63.5,67.2,62.5,57.0,98,75,40,30.06,29.97,14,2,16,0.00
2013-6-18,70.3,66.6,62.0,67.8,64.0,60.6,98,92,74,30.00,29.91,7,0,8,1.64
2013-6-19,83.1,67.4,57.4,66.3,58.3,50.1,98,77,33,30.18,30.00,11,1,12,0.01
2013-6-20,84.4,71.7,63.5,65.3,59.9,52.5,98,70,36,30.27,30.18,11,2,12,0.00
2013-6-21,86.5,73.6,65.0,64.1,61.1,57.3,94,68,39,30.29,30.24,10,2,10,0.00
2013-6-22,86.1,71.7,60.3,63.0,58.2,52.3,98,66,37,30.29,30.18,11,2,12,0.00
2013-6-23,87.4,73.4,62.7,65.9,60.2,53.8,96,67,34,30.27,30.15,14,2,15,0.00
2013-6-24,83.3,70.4,62.7,70.0,63.9,59.1,97,81,49,30.27,30.12,14,2,15,0.39
2013-6-25,87.8,73.2,63.8,72.0,64.9,59.1,98,79,41,30.18,30.03,11,2,12,0.00
2013-6-26,83.5,74.0,66.8,71.8,65.0,58.2,98,76,46,30.09,29.97,18,3,20,0.00
2013-6-27,75.9,69.9,65.5,68.5,65.2,62.5,98,86,67,29.97,29.79,12,3,13,0.03
2013-6-28,85.0,73.7,65.2,71.4,61.0,50.1,98,69,33,29.82,29.65,24,6,26,0.21
2013-6-29,81.5,69.0,58.3,64.2,58.6,54.2,98,72,43,29.79,29.67,12,2,13,0.01
2013-6-30,86.8,71.8,60.0,65.5,59.8,52.7,98,70,33,29.94,29.79,10,2,10,0.00
2013-7-1,80.3,70.8,64.6,67.9,64.0,58.8,98,80,60,30.03,29.91,12,1,13,0.15
2013-7-2,78.5,71.0,67.2,69.9,66.6,62.8,98,87,61,30.18,30.03,11,1,12,0.22
2013-7-3,75.7,70.5,67.7,70.2,68.0,66.4,98,92,76,30.29,30.18,10,1,10,0.31
2013-7-4,83.1,73.3,67.2,72.0,66.8,62.9,98,82,56,30.29,30.21,12,2,13,0.03
2013-7-5,80.0,73.3,68.1,74.2,68.7,64.8,98,86,68,30.29,30.21,11,2,12,0.29
2013-7-6,85.2,73.7,64.8,70.7,65.8,61.3,98,79,49,30.27,30.15,12,2,14,0.00
2013-7-7,78.9,70.0,66.1,70.3,67.2,61.2,98,91,63,30.21,30.12,16,2,17,0.37
2013-7-8,80.7,70.9,64.0,69.6,63.0,57.0,98,79,48,30.24,30.15,14,2,15,0.03
2013-7-9,85.9,73.6,65.7,70.8,66.2,62.1,98,80,48,30.21,30.12,12,2,13,0.00
2013-7-10,79.2,71.9,68.7,73.3,69.6,65.7,98,93,73,30.15,30.03,16,1,18,0.60
2013-7-11,77.8,71.8,67.4,72.3,69.0,64.5,98,91,66,30.03,29.97,12,1,13,0.24
2013-7-12,75.3,68.4,63.7,67.0,63.0,59.6,98,84,60,30.12,30.00,10,1,11,0.00
2013-7-13,76.3,69.8,64.2,69.1,64.6,60.5,98,84,67,30.27,30.12,9,1,10,0.01
2013-7-14,84.8,74.1,68.8,69.2,65.1,60.6,98,76,48,30.38,30.27,15,2,16,0.00
2013-7-15,89.4,75.2,65.2,71.4,66.0,63.3,98,76,46,30.41,30.32,8,1,9,0.00
2013-7-16,91.3,74.7,67.2,73.2,68.1,62.6,98,83,42,30.38,30.29,23,1,25,1.06
2013-7-17,86.3,74.9,69.2,76.5,70.8,66.9,98,88,58,30.35,30.24,7,1,8,0.31
2013-7-18,88.5,75.2,69.0,76.8,70.6,67.3,98,87,56,30.29,30.18,10,1,10,0.00
2013-7-19,85.9,73.5,69.0,77.1,70.1,64.4,98,90,57,30.18,30.06,14,1,15,0.02
2013-7-20,87.6,75.6,67.2,73.1,67.5,62.6,98,78,46,30.06,29.97,16,3,18,0.00
2013-7-21,82.6,71.5,67.4,73.3,68.6,65.3,98,91,60,30.09,30.00,14,1,15,0.71
2013-7-22,82.8,73.5,68.8,73.3,68.6,63.6,98,86,55,30.06,29.88,12,2,13,0.20
2013-7-23,82.6,73.9,68.1,70.3,65.3,59.6,98,77,50,29.91,29.85,18,4,20,0.01
2013-7-24,83.1,72.1,66.1,68.7,62.1,55.2,98,74,42,30.00,29.85,16,3,17,0.00
2013-7-25,80.5,68.2,60.5,60.4,55.8,49.8,93,67,41,30.12,29.97,14,2,15,0.00
2013-7-26,82.4,67.6,54.8,61.2,55.2,49.1,98,68,33,30.18,30.09,12,2,13,0.00
2013-7-27,71.1,66.6,63.5,68.2,64.2,58.1,98,92,75,30.09,29.97,9,1,10,1.74
2013-7-28,77.6,68.0,62.2,66.2,60.4,53.8,98,79,48,30.09,29.97,12,2,13,0.03
2013-7-29,74.1,62.8,52.5,59.2,52.5,47.4,98,72,42,30.27,30.09,12,2,14,0.00
2013-7-30,80.9,65.5,53.5,61.5,55.5,50.5,98,73,42,30.29,30.21,11,2,12,0.00
2013-7-31,67.7,64.5,62.5,65.7,62.2,58.1,98,92,78,30.21,30.06,7,0,8,0.48
2013-8-1,78.9,69.0,63.1,68.5,62.7,58.6,98,82,54,30.06,29.94,12,2,13,0.10
2013-8-2,80.5,68.3,59.8,66.2,57.8,51.9,98,73,39,30.12,30.00,14,2,16,0.00
2013-8-3,77.9,67.6,60.5,65.5,60.2,54.8,98,79,49,30.09,30.03,12,2,15,0.00
2013-8-4,76.5,66.6,59.2,63.8,55.8,48.8,98,71,42,30.12,30.03,16,3,18,0.00
2013-8-5,77.9,64.4,52.9,59.2,54.0,49.6,98,72,42,30.18,30.06,12,2,13,0.00
2013-8-6,81.7,70.3,62.2,66.9,60.9,56.7,98,75,46,30.09,30.03,13,1,14,0.04
2013-8-7,78.7,71.3,67.7,71.0,67.9,63.5,98,90,69,30.12,30.06,12,1,13,0.35
2013-8-8,77.2,71.7,68.5,73.6,70.2,67.9,98,95,81,30.12,30.06,8,1,9,0.79
2013-8-9,83.7,74.9,70.2,73.8,69.1,63.8,98,84,54,30.12,30.03,14,3,15,0.06
2013-8-10,82.9,73.3,68.8,71.0,67.6,58.6,98,85,47,30.18,30.09,11,1,12,0.32
2013-8-11,76.5,70.6,67.6,74.4,69.3,66.4,98,96,82,30.18,30.12,5,0,6,0.30
2013-8-12,84.2,72.1,65.3,71.2,65.6,57.0,98,83,40,30.15,30.03,9,1,10,0.01
2013-8-13,79.8,70.8,65.0,69.9,65.6,58.2,98,86,53,30.03,29.91,14,2,15,0.04
2013-8-14,70.9,61.5,53.5,64.0,48.9,42.7,96,65,43,30.18,29.97,14,3,16,0.00
2013-8-15,74.4,58.9,48.3,55.6,49.2,44.3,98,73,42,30.21,30.12,8,1,10,0.00
2013-8-16,76.6,61.7,50.7,59.2,52.3,47.9,98,75,42,30.24,30.15,9,1,10,0.00
2013-8-17,72.8,62.6,55.1,60.7,56.4,53.3,98,81,53,30.27,30.21,7,1,8,0.00
2013-8-18,71.6,65.2,60.7,67.2,62.4,58.5,98,91,76,30.27,30.21,7,1,8,0.15
2013-8-19,79.8,68.9,64.4,70.6,64.5,59.1,98,87,54,30.24,30.12,9,1,10,0.10
2013-8-20,84.8,69.5,60.1,66.6,61.8,58.2,98,80,42,30.24,30.18,8,1,9,0.01
2013-8-21,80.5,69.0,64.2,70.7,66.1,60.3,98,91,61,30.27,30.18,14,1,15,0.76
2013-8-22,80.3,69.3,60.7,69.3,63.4,60.1,98,83,54,30.21,30.09,12,2,13,0.00
2013-8-23,78.9,68.6,61.8,69.8,63.2,58.8,98,84,53,30.21,30.06,12,1,14,0.03
2013-8-24,80.5,65.9,56.4,61.5,56.9,51.8,98,77,40,30.35,30.21,8,1,9,0.00
2013-8-25,79.4,65.4,56.1,63.0,55.5,50.7,98,74,38,30.44,30.32,9,1,10,0.00
2013-8-26,83.1,66.1,54.6,62.8,56.8,51.7,98,75,40,30.35,30.15,9,2,10,0.00
2013-8-27,81.5,72.1,61.8,68.1,63.6,59.0,98,76,53,30.18,30.06,14,3,15,0.00
2013-8-28,84.4,73.2,69.4,74.0,68.8,62.9,98,87,52,30.09,29.94,16,2,18,1.42
2013-8-29,86.8,75.6,70.0,73.9,68.5,62.5,98,80,45,30.12,29.94,8,1,9,0.02
2013-8-30,84.8,76.0,65.9,70.1,66.1,62.6,98,73,50,30.12,30.00,12,2,13,0.00
2013-8-31,81.7,74.5,67.4,71.9,68.5,65.2,98,83,60,30.00,29.94,9,2,10,0.16
2013-9-1,75.9,69.8,65.3,71.3,67.5,64.8,98,93,78,29.97,29.88,8,1,9,0.01
2013-9-2,85.0,72.9,65.9,72.1,64.9,60.0,98,79,45,29.94,29.88,12,2,14,0.00
2013-9-3,78.7,69.6,61.4,69.6,61.0,52.3,98,77,43,30.09,29.91,14,3,16,0.17
2013-9-4,81.1,64.9,55.7,60.3,56.2,53.3,98,77,43,30.18,30.09,11,2,12,0.00
2013-9-5,78.3,63.9,52.5,64.3,55.7,52.0,98,78,46,30.21,30.15,16,3,18,0.00
2013-9-6,79.2,65.3,56.8,60.0,55.7,51.0,98,74,40,30.27,30.15,7,1,8,0.00
2013-9-7,82.0,64.6,54.8,63.3,54.0,47.5,98,73,32,30.18,30.06,11,2,12,0.00
2013-9-8,82.8,67.4,55.7,65.6,58.8,52.5,98,76,46,30.12,30.00,14,2,15,0.00
2013-9-9,79.8,68.6,62.0,67.8,63.9,61.1,98,86,59,30.21,30.12,7,1,8,0.00
2013-9-10,88.1,74.1,65.0,70.0,66.9,63.2,98,81,45,30.27,30.21,10,1,10,0.00
2013-9-11,82.9,71.6,66.8,73.5,67.1,64.1,98,87,60,30.27,30.15,10,1,10,0.00
2013-9-12,84.4,70.5,64.8,73.6,65.2,55.8,98,85,46,30.15,29.91,28,2,31,0.01
2013-9-13,70.9,62.9,56.4,62.2,51.1,41.3,98,68,37,30.03,29.85,18,5,20,0.06
2013-9-14,72.2,57.1,45.1,48.1,43.7,39.5,90,63,37,30.18,30.00,9,2,10,0.00
2013-9-15,73.7,57.7,45.5,56.2,49.6,40.6,98,77,45,30.24,30.15,12,2,13,0.00
2013-9-16,66.1,57.9,51.4,62.2,52.8,47.1,98,84,62,30.29,30.15,14,1,16,0.00
2013-9-17,72.2,56.4,47.2,53.4,47.9,44.4,98,77,42,30.35,30.27,10,1,11,0.00
2013-9-18,67.4,56.5,45.3,59.8,50.7,42.4,98,82,59,30.29,30.18,9,1,10,0.01
2013-9-19,76.1,64.9,58.8,65.0,61.2,58.3,98,89,61,30.21,30.12,10,1,10,0.04
2013-9-20,73.9,67.6,64.4,69.6,65.6,63.7,98,94,72,30.12,30.00,7,0,8,0.23
2013-9-21,67.7,64.2,60.3,66.8,62.8,56.8,98,95,85,30.00,29.76,18,1,20,0.51
2013-9-22,55.1,54.8,54.4,50.2,49.6,48.7,84,83,81,30.00,30.00,4,0,4,0.13
2013-9-23,73.5,56.0,45.3,52.3,46.8,42.4,98,75,36,30.09,30.00,9,1,10,0.13
2013-9-24,77.4,63.0,50.1,55.9,52.3,48.2,98,72,39,30.12,29.97,10,2,10,0.13
2013-9-25,67.7,60.4,52.9,60.2,55.1,50.1,98,84,59,30.03,29.94,7,1,8,0.13
2013-9-26,77.0,62.9,53.3,58.8,53.7,47.5,98,75,41,30.12,29.97,12,1,13,0.13
2013-9-27,75.2,59.3,48.3,56.2,50.4,43.8,98,76,42,30.24,30.12,7,1,8,0.13
2013-9-28,68.1,59.5,52.0,57.2,51.9,45.8,97,77,51,30.29,30.21,6,0,7,0.13
2013-9-29,71.4,58.6,49.2,54.9,50.6,47.4,98,77,47,30.24,30.06,8,1,9,0.13
2013-9-30,69.4,59.2,51.1,58.2,53.9,49.2,98,84,59,30.12,30.06,7,1,8,0.00
2013-10-1,77.8,63.0,55.9,63.0,55.1,48.3,98,79,38,30.18,30.09,12,2,14,0.00
2013-10-2,80.5,62.1,51.2,64.1,53.1,47.8,98,76,38,30.21,30.12,10,2,10,0.00
2013-10-3,78.5,62.5,52.9,60.4,55.1,49.5,98,80,46,30.21,30.09,8,1,9,0.00
2013-10-4,84.8,65.6,54.8,65.3,58.0,53.1,98,80,39,30.21,30.12,10,1,10,0.00
2013-10-5,82.9,67.2,58.8,67.4,58.5,53.7,98,77,39,30.21,30.09,10,1,10,0.00
2013-10-6,81.3,66.6,57.0,66.7,58.0,54.5,98,77,44,30.12,29.94,16,2,17,0.00
2013-10-7,67.2,58.9,47.3,64.2,50.5,38.8,98,75,50,30.12,29.82,17,3,18,0.95
2013-10-8,70.5,52.4,39.2,47.7,41.3,36.2,98,70,35,30.27,30.12,6,0,6,0.00
2013-10-9,67.1,50.8,38.8,48.7,39.3,35.9,98,69,36,30.29,30.21,0,0,0,0.00
2013-10-10,69.7,58.5,49.1,59.7,52.7,40.0,98,82,63,30.21,30.03,0,0,0,0.03
2013-10-11,67.5,61.0,57.8,59.4,55.4,51.9,98,83,62,30.06,30.00,12,1,14,0.00
2013-10-12,71.6,62.2,57.1,63.2,58.0,53.5,98,87,65,30.18,30.03,7,0,8,0.03
2013-10-13,68.2,62.2,56.7,59.8,56.8,54.1,98,83,65,30.27,30.15,6,0,6,0.01
2013-10-14,72.5,62.5,57.7,60.1,56.9,53.7,98,83,53,30.29,30.18,8,1,9,0.09
2013-10-15,68.6,58.6,52.1,54.3,50.2,43.6,98,76,44,30.27,30.12,7,1,8,0.01
2013-10-16,67.5,56.8,47.1,54.7,49.9,45.5,98,79,57,30.12,29.97,9,1,10,0.00
2013-10-17,62.7,58.5,49.1,62.1,55.2,38.5,98,89,67,30.00,29.82,16,2,18,0.53
2013-10-18,65.8,51.8,42.8,38.9,35.5,32.7,75,55,32,30.06,29.97,17,3,18,0.01
2013-10-19,58.0,45.9,38.9,45.9,38.7,32.3,91,77,46,30.00,29.85,14,2,15,0.00
2013-10-20,59.9,45.2,36.7,33.9,29.5,26.8,71,55,35,30.09,29.97,14,3,16,0.00
2013-10-21,65.4,46.2,28.7,38.1,31.5,24.3,96,61,33,30.15,29.97,12,2,13,0.00
2013-10-22,55.0,43.8,35.7,46.6,35.7,30.2,98,74,52,29.97,29.85,14,2,15,0.01
2013-10-23,46.3,36.0,30.5,40.6,31.1,23.0,98,83,63,29.97,29.73,20,3,22,0.05
2013-10-24,42.0,34.1,28.7,27.8,24.0,20.9,79,67,48,30.12,29.94,14,4,15,0.01
2013-10-25,41.8,33.5,25.3,25.1,20.3,17.6,79,59,44,30.29,30.12,17,4,18,0.00
2013-10-26,52.0,39.9,21.2,28.7,22.3,16.8,96,53,33,30.29,29.97,18,4,20,0.00
2013-10-27,58.5,45.9,36.6,32.2,28.2,23.1,69,51,37,30.12,30.00,19,4,21,0.00
2013-10-28,58.3,42.7,28.9,42.5,34.0,24.0,92,73,48,30.27,30.12,12,1,13,0.00
2013-10-29,63.5,49.7,39.6,46.8,41.5,36.7,98,76,46,30.32,30.24,12,2,13,0.00
2013-10-30,55.5,52.1,49.4,55.0,49.5,43.3,98,91,74,30.27,30.18,4,0,5,0.15
2013-10-31,63.0,56.2,52.0,59.2,53.0,48.9,98,90,63,30.21,29.76,14,1,16,0.13
2013-11-1,70.3,61.8,54.0,59.6,47.7,34.6,93,63,35,29.79,29.65,19,5,21,0.36
2013-11-2,58.7,49.3,42.7,40.9,35.4,29.4,86,60,38,29.97,29.76,17,4,18,0.00
2013-11-3,52.5,43.2,31.4,36.8,30.3,24.7,82,61,41,30.35,29.97,17,4,18,0.00
2013-11-4,45.9,33.6,25.8,29.0,24.6,22.1,88,71,44,30.47,30.32,6,0,7,0.00
2013-11-5,55.1,42.6,30.9,42.4,30.5,23.9,84,64,32,30.50,30.38,9,1,10,0.00
2013-11-6,67.0,53.2,46.6,49.5,44.6,40.9,93,75,44,30.38,30.09,14,1,15,0.00
2013-11-7,50.7,44.2,33.6,50.1,35.5,18.9,98,73,52,30.12,29.94,24,5,26,0.14
2013-11-8,43.7,35.1,25.7,21.6,18.7,15.7,72,52,40,30.27,30.12,28,5,31,0.00
2013-11-9,54.3,38.2,23.9,27.5,21.4,16.1,81,55,31,30.27,30.09,14,3,16,0.00
2013-11-10,53.4,44.1,31.9,29.0,23.3,17.0,57,44,36,30.27,30.06,26,7,28,0.00
2013-11-11,56.9,39.9,27.5,26.8,21.0,16.6,74,49,28,30.27,30.03,12,2,13,0.00
2013-11-12,50.3,34.4,23.9,28.9,16.8,7.4,62,49,32,30.35,30.00,22,7,24,0.00
2013-11-13,35.6,25.9,20.7,13.7,9.4,6.8,61,49,39,30.41,30.35,16,5,18,0.00
2013-11-14,51.2,30.8,15.9,24.0,13.7,7.6,75,52,30,30.35,30.24,12,2,14,0.00
2013-11-15,56.0,37.5,19.8,36.2,20.8,9.1,78,53,28,30.27,30.12,14,1,15,0.09
2013-11-16,59.3,48.1,39.8,48.8,41.8,35.3,96,80,61,30.24,30.15,9,1,10,0.00
2013-11-17,62.8,53.9,48.8,55.4,49.1,44.6,98,84,63,30.18,29.79,11,1,12,0.31
2013-11-18,56.3,48.4,38.0,55.6,29.3,19.0,98,49,33,30.00,29.79,27,8,30,0.02
2013-11-19,42.2,34.3,27.1,21.3,18.3,15.5,65,52,41,30.27,30.00,28,5,30,0.00
2013-11-20,46.8,33.2,25.5,20.1,16.1,11.5,69,51,30,30.38,30.27,11,1,12,0.00
2013-11-21,47.0,37.4,28.4,35.2,26.6,14.6,81,65,57,30.41,30.32,5,0,6,0.00
2013-11-22,53.8,47.2,40.2,53.2,43.5,33.9,98,87,77,30.32,30.09,16,1,18,0.02
2013-11-23,47.0,35.8,21.1,40.8,22.6,5.1,81,59,45,30.18,30.09,31,8,34,0.00
2013-11-24,22.9,17.1,12.1,7.1,-0.4,-3.8,55,46,39,30.38,30.18,25,7,27,0.00
2013-11-25,36.9,23.4,11.0,17.6,5.4,-2.0,64,47,32,30.38,30.21,12,2,13,0.00
2013-11-26,38.0,32.1,27.5,37.3,28.2,16.7,98,86,62,30.24,29.65,8,0,9,2.50
2013-11-27,39.1,27.4,18.5,38.6,17.0,4.2,98,65,53,30.06,29.62,30,9,33,0.00
2013-11-28,32.1,23.3,17.0,14.4,9.1,4.5,71,54,44,30.32,30.06,31,5,34,0.00
2013-11-29,40.0,28.7,19.6,19.5,13.6,8.7,70,53,41,30.50,30.32,12,2,13,0.00
2013-11-30,36.7,25.3,16.5,19.7,14.2,9.2,77,63,47,30.50,30.24,7,1,8,0.00
2013-12-1,46.1,30.0,15.9,26.8,19.0,9.4,80,64,46,30.24,29.97,10,1,10,0.00
2013-12-2,48.1,39.2,33.2,32.7,28.9,25.0,81,67,52,29.97,29.79,9,1,10,0.00
2013-12-3,49.9,38.7,30.8,36.8,31.7,26.6,93,77,59,29.94,29.82,7,1,8,0.00
2013-12-4,59.8,46.4,36.7,45.2,39.0,32.3,89,76,56,30.03,29.94,9,1,10,0.00
2013-12-5,57.6,47.4,38.2,52.1,45.2,35.8,98,92,77,30.06,29.94,6,0,7,0.04
2013-12-6,53.0,48.1,39.5,52.5,47.3,37.7,98,97,89,30.06,29.88,17,0,18,1.58
2013-12-7,39.3,32.8,25.0,37.7,25.8,18.4,94,75,61,30.38,30.06,12,2,13,0.00
2013-12-8,31.2,27.7,25.0,30.7,23.7,19.3,98,84,74,30.38,30.12,5,1,6,0.93
2013-12-9,41.5,33.6,29.9,41.0,31.1,24.2,98,91,67,30.12,30.00,14,2,16,0.30
2013-12-10,32.7,28.0,22.0,30.6,19.6,7.1,98,72,51,30.18,29.91,22,5,24,0.34
2013-12-11,35.2,26.0,17.0,16.8,10.7,5.7,63,52,40,30.27,30.15,19,5,20,0.00
2013-12-12,26.8,19.9,14.5,11.5,2.9,-1.4,54,47,39,30.29,30.18,18,5,19,0.00
2013-12-13,35.6,26.3,19.6,15.0,7.0,0.9,64,44,39,30.21,30.12,16,4,18,0.00
2013-12-14,32.7,29.7,25.7,30.2,24.3,13.9,94,80,59,30.21,29.67,6,0,6,0.72
2013-12-15,35.6,30.1,26.2,34.9,22.4,14.9,98,73,59,29.94,29.67,20,5,22,0.07
2013-12-16,35.6,29.1,25.1,23.7,19.6,14.9,78,68,58,30.03,29.94,18,4,20,0.00
2013-12-17,38.0,31.2,25.5,30.6,26.0,16.4,92,81,62,30.00,29.88,14,2,16,0.10
2013-12-18,31.7,26.0,19.1,20.6,13.3,10.2,80,59,48,30.15,29.97,18,5,20,0.00
2013-12-19,49.5,29.5,14.1,27.0,17.4,8.1,80,62,38,30.18,30.09,14,1,15,0.00
2013-12-20,46.6,35.5,27.0,29.0,25.3,21.8,86,68,47,30.09,30.00,7,1,8,0.00
2013-12-21,60.6,45.3,34.1,55.7,38.3,27.8,95,77,63,30.03,29.88,17,1,18,0.00
2013-12-22,63.0,54.9,48.6,55.6,52.1,48.1,98,91,75,30.03,29.88,19,3,21,0.70
2013-12-23,50.7,41.2,25.9,50.1,35.5,16.8,98,81,61,30.18,29.91,22,4,24,0.42
2013-12-24,28.8,22.4,12.1,17.2,9.8,-0.8,71,58,47,30.32,30.12,20,6,22,0.00
2013-12-25,32.1,19.0,8.2,10.9,3.7,-4.2,70,51,38,30.35,30.18,12,1,13,0.00
2013-12-26,35.6,26.5,17.0,17.9,11.8,6.1,71,54,40,30.27,30.12,22,3,24,0.00
2013-12-27,43.7,27.7,16.5,20.2,12.8,8.6,74,55,34,30.32,30.24,14,2,16,0.00
2013-12-28,45.9,30.6,18.0,23.8,16.6,10.0,77,58,38,30.29,30.09,10,1,10,0.00
2013-12-29,42.6,36.2,32.3,41.7,32.6,23.3,98,87,66,30.09,29.65,22,3,24,1.73
2013-12-30,38.2,32.3,27.1,31.1,22.3,15.5,81,66,59,30.06,29.85,17,5,18,0.00
2013-12-31,30.5,26.5,21.5,17.8,12.5,9.4,65,55,46,30.24,30.00,20,6,22,0.00
2014-1-1,44.8,28.3,17.0,23.8,15.2,9.4,78,59,37,30.27,30.03,11,1,12,0.00
2014-1-2,33.0,26.9,17.8,29.9,20.3,5.3,91,76,56,30.03,29.59,19,2,21,0.16